Time;durP1;ratioP1;P1;durP2;ratioP2;P2;SDS_P1;SDS_P2;PMS_P1;PMS_P2;Temp;Humidity;BMP_temperature;BMP_pressure;BME280_temperature;BME280_humidity;BME280_pressure;Samples;Min_cycle;Max_cycle;Signal;HPM_P1;HPM_P2
2022/01/20 00:02:28;;;;;;;;;;;1.80;91.80;;;;;;4834635;29;19931;-78
2022/01/20 00:06:47;;;;;;;;;;;1.70;91.70;;;;;;4823471;29;19925;-77
2022/01/20 00:27:12;;;;;;;;;;;1.80;92.00;;;;;;4825492;29;20404;-79
2022/01/20 00:32:33;;;;;;;;;;;1.80;92.10;;;;;;4843056;29;19924;-78
2022/01/20 00:37:29;;;;;;;;;;;1.80;92.00;;;;;;4825175;29;20286;-79
2022/01/20 00:39:57;;;;;;;;;;;1.70;91.90;;;;;;4827971;29;19925;-78
2022/01/20 00:42:25;;;;;;;;;;;1.70;91.90;;;;;;4838773;29;19931;-78
2022/01/20 00:44:53;;;;;;;;;;;1.60;91.90;;;;;;4838025;29;20373;-79
2022/01/20 00:47:21;;;;;;;;;;;1.50;91.90;;;;;;4825952;29;19932;-80
2022/01/20 00:49:48;;;;;;;;;;;1.50;91.90;;;;;;4835629;29;19924;-79
2022/01/20 00:52:16;;;;;;;;;;;1.50;92.00;;;;;;4839615;29;19932;-79
2022/01/20 00:54:44;;;;;;;;;;;1.40;92.20;;;;;;4841141;29;19936;-80
2022/01/20 00:57:11;;;;;;;;;;;1.40;92.20;;;;;;4828237;29;19924;-79
2022/01/20 00:59:39;;;;;;;;;;;1.40;92.20;;;;;;4822983;29;19924;-79
2022/01/20 01:02:08;;;;;;;;;;;1.40;92.30;;;;;;4835046;29;19928;-80
2022/01/20 01:04:36;;;;;;;;;;;1.40;92.30;;;;;;4826651;29;19924;-80
2022/01/20 01:07:40;;;;;;;;;;;1.40;92.50;;;;;;4812693;29;19940;-79
2022/01/20 01:10:09;;;;;;;;;;;1.30;92.40;;;;;;4832138;29;19932;-79
2022/01/20 01:13:01;;;;;;;;;;;1.30;92.30;;;;;;4820742;29;19925;-80
2022/01/20 01:15:34;;;;;;;;;;;1.30;92.30;;;;;;4838547;29;19947;-77
2022/01/20 01:23:27;;;;;;;;;;;1.30;92.20;;;;;;4824688;29;19940;-77
2022/01/20 01:25:57;;;;;;;;;;;1.30;92.30;;;;;;4834423;29;19924;-78
2022/01/20 01:28:27;;;;;;;;;;;1.20;92.40;;;;;;4811678;29;19924;-78
2022/01/20 01:33:35;;;;;;;;;;;1.30;92.70;;;;;;4841816;29;19925;-78
2022/01/20 01:36:04;;;;;;;;;;;1.20;92.60;;;;;;4826919;29;19924;-79
2022/01/20 01:38:38;;;;;;;;;;;1.20;92.50;;;;;;4824456;29;19947;-79
2022/01/20 01:41:09;;;;;;;;;;;1.20;92.70;;;;;;4824056;29;20282;-79
2022/01/20 01:43:41;;;;;;;;;;;1.20;92.50;;;;;;4825567;29;19925;-79
2022/01/20 01:46:09;;;;;;;;;;;1.20;92.50;;;;;;4829446;29;20308;-79
2022/01/20 01:48:40;;;;;;;;;;;1.20;92.50;;;;;;4806520;29;19936;-79
2022/01/20 01:51:08;;;;;;;;;;;1.20;92.50;;;;;;4809838;29;20378;-79
2022/01/20 01:53:36;;;;;;;;;;;1.10;92.60;;;;;;4824759;29;20288;-78
2022/01/20 01:56:04;;;;;;;;;;;1.10;92.60;;;;;;4818068;29;19935;-79
2022/01/20 01:58:32;;;;;;;;;;;1.10;92.60;;;;;;4818106;29;19932;-79
2022/01/20 02:01:35;;;;;;;;;;;1.10;92.70;;;;;;4768487;30;19934;-79
2022/01/20 02:04:18;;;;;;;;;;;1.00;92.50;;;;;;4754243;30;19926;-79
2022/01/20 02:07:58;;;;;;;;;;;1.00;92.30;;;;;;4768781;30;20568;-79
2022/01/20 02:17:51;;;;;;;;;;;0.80;92.10;;;;;;4769742;29;20005;-79
2022/01/20 02:20:52;;;;;;;;;;;0.50;92.30;;;;;;4786302;30;19932;-78
2022/01/20 02:23:21;;;;;;;;;;;0.50;92.30;;;;;;4786095;30;20433;-78
2022/01/20 02:25:49;;;;;;;;;;;0.50;92.50;;;;;;4759364;30;19926;-78
2022/01/20 02:28:16;;;;;;;;;;;0.50;92.90;;;;;;4788335;30;19932;-79
2022/01/20 02:30:44;;;;;;;;;;;0.70;93.10;;;;;;4788873;30;19933;-79
2022/01/20 02:33:13;;;;;;;;;;;0.70;93.10;;;;;;4784489;30;19929;-79
2022/01/20 02:35:44;;;;;;;;;;;0.70;93.00;;;;;;4788939;30;20405;-79
2022/01/20 02:38:38;;;;;;;;;;;0.80;93.10;;;;;;4836701;29;20281;-79
2022/01/20 02:46:39;;;;;;;;;;;0.70;92.60;;;;;;4841441;29;19924;-79
2022/01/20 02:49:07;;;;;;;;;;;0.60;92.70;;;;;;4840936;29;20296;-79
2022/01/20 02:51:35;;;;;;;;;;;0.60;92.80;;;;;;4841295;29;19935;-79
2022/01/20 02:54:04;;;;;;;;;;;0.60;92.80;;;;;;4825994;29;19932;-79
2022/01/20 02:56:31;;;;;;;;;;;0.60;92.80;;;;;;4850465;29;19937;-79
2022/01/20 02:58:59;;;;;;;;;;;0.60;92.80;;;;;;4834171;29;19925;-79
2022/01/20 03:01:26;;;;;;;;;;;0.60;92.70;;;;;;4823407;29;19939;-79
2022/01/20 03:03:54;;;;;;;;;;;0.50;92.70;;;;;;4839662;29;19925;-79
2022/01/20 03:06:21;;;;;;;;;;;0.50;92.70;;;;;;4831096;29;19925;-79
2022/01/20 03:08:49;;;;;;;;;;;0.50;92.90;;;;;;4850948;29;19925;-79
2022/01/20 03:11:16;;;;;;;;;;;0.50;92.70;;;;;;4838041;29;19924;-78
2022/01/20 03:13:43;;;;;;;;;;;0.40;92.30;;;;;;4835788;29;19932;-79
2022/01/20 03:16:11;;;;;;;;;;;0.30;91.90;;;;;;4833428;29;19924;-79
2022/01/20 03:18:39;;;;;;;;;;;0.10;91.70;;;;;;4857064;29;19946;-80
2022/01/20 03:21:06;;;;;;;;;;;0.00;91.50;;;;;;4852452;29;19924;-79
2022/01/20 03:23:34;;;;;;;;;;;-0.20;91.60;;;;;;4833616;29;19932;-79
2022/01/20 03:26:02;;;;;;;;;;;-0.20;92.00;;;;;;4826696;29;19925;-79
2022/01/20 03:28:30;;;;;;;;;;;-0.20;92.50;;;;;;4825998;29;19932;-79
2022/01/20 03:30:58;;;;;;;;;;;-0.10;93.10;;;;;;4844853;29;19924;-79
2022/01/20 03:33:27;;;;;;;;;;;0.00;93.40;;;;;;4843490;29;19924;-79
2022/01/20 03:35:54;;;;;;;;;;;0.10;93.50;;;;;;4854215;29;19924;-79
2022/01/20 03:38:50;;;;;;;;;;;0.30;93.60;;;;;;4825779;29;20405;-79
2022/01/20 03:41:19;;;;;;;;;;;0.30;93.60;;;;;;4851908;29;19932;-79
2022/01/20 03:43:46;;;;;;;;;;;0.50;93.60;;;;;;4840756;29;19929;-79
2022/01/20 03:46:15;;;;;;;;;;;0.50;93.60;;;;;;4850435;29;19925;-79
2022/01/20 03:48:51;;;;;;;;;;;0.60;93.40;;;;;;4823189;29;19932;-79
2022/01/20 03:51:21;;;;;;;;;;;0.60;93.10;;;;;;4854143;29;19940;-78
2022/01/20 03:53:51;;;;;;;;;;;0.50;92.90;;;;;;4845062;29;19924;-78
2022/01/20 03:56:22;;;;;;;;;;;0.40;92.80;;;;;;4837386;29;20301;-79
2022/01/20 03:59:12;;;;;;;;;;;0.40;92.80;;;;;;4822235;29;19925;-77
2022/01/20 04:01:39;;;;;;;;;;;0.30;92.80;;;;;;4845191;29;19924;-78
2022/01/20 04:04:23;;;;;;;;;;;0.30;93.00;;;;;;4813816;29;20293;-78
2022/01/20 04:07:05;;;;;;;;;;;0.40;93.20;;;;;;4858280;29;19991;-78
2022/01/20 04:09:32;;;;;;;;;;;0.50;93.30;;;;;;4843185;29;20289;-78
2022/01/20 04:12:00;;;;;;;;;;;0.50;93.50;;;;;;4841887;29;19932;-78
2022/01/20 04:14:31;;;;;;;;;;;0.60;93.60;;;;;;4841825;29;19924;-78
2022/01/20 04:19:27;;;;;;;;;;;0.70;93.50;;;;;;4833777;29;20400;-79
2022/01/20 04:21:57;;;;;;;;;;;0.70;93.30;;;;;;4814253;29;19925;-79
2022/01/20 04:24:26;;;;;;;;;;;0.60;93.10;;;;;;4827422;29;19936;-79
2022/01/20 04:26:54;;;;;;;;;;;0.60;93.20;;;;;;4839050;29;19925;-79
2022/01/20 04:29:22;;;;;;;;;;;0.60;93.30;;;;;;4820109;29;20290;-79
2022/01/20 04:31:50;;;;;;;;;;;0.70;93.50;;;;;;4842202;29;20007;-79
2022/01/20 04:34:18;;;;;;;;;;;0.70;93.60;;;;;;4830432;29;19987;-79
2022/01/20 04:36:48;;;;;;;;;;;0.80;93.60;;;;;;4842459;29;19928;-79
2022/01/20 04:39:19;;;;;;;;;;;0.70;93.30;;;;;;4825407;29;19928;-79
2022/01/20 04:41:47;;;;;;;;;;;0.70;93.20;;;;;;4819927;29;19925;-80
2022/01/20 04:44:33;;;;;;;;;;;0.70;93.00;;;;;;4830546;29;19928;-79
2022/01/20 04:47:28;;;;;;;;;;;0.60;92.80;;;;;;4839258;29;20349;-79
2022/01/20 04:58:31;;;;;;;;;;;0.10;92.20;;;;;;4769094;30;19926;-80
2022/01/20 05:01:01;;;;;;;;;;;0.00;92.10;;;;;;4739052;30;19933;-80
2022/01/20 05:04:07;;;;;;;;;;;-0.10;92.00;;;;;;4777829;29;19936;-80
2022/01/20 05:07:08;;;;;;;;;;;-0.30;91.90;;;;;;4751127;30;19937;-79
2022/01/20 05:09:36;;;;;;;;;;;-0.40;91.90;;;;;;4751109;30;19930;-80
2022/01/20 05:12:11;;;;;;;;;;;-0.60;91.90;;;;;;4750760;30;19933;-79
2022/01/20 05:14:40;;;;;;;;;;;-0.70;92.00;;;;;;4736485;30;20021;-79
2022/01/20 05:17:08;;;;;;;;;;;-0.70;92.10;;;;;;4736080;30;20334;-77
2022/01/20 05:19:36;;;;;;;;;;;-0.80;92.10;;;;;;4736429;30;19930;-79
2022/01/20 05:22:04;;;;;;;;;;;-0.90;92.10;;;;;;4735776;30;20323;-78
2022/01/20 05:24:43;;;;;;;;;;;-1.00;92.30;;;;;;4736433;30;19926;-79
2022/01/20 05:27:11;;;;;;;;;;;-1.00;92.50;;;;;;4736328;30;19933;-78
2022/01/20 05:29:40;;;;;;;;;;;-1.10;92.50;;;;;;4736001;30;19926;-78
2022/01/20 05:32:08;;;;;;;;;;;-1.10;92.50;;;;;;4752367;30;19930;-78
2022/01/20 05:34:35;;;;;;;;;;;-1.10;92.50;;;;;;4768679;30;19925;-78
2022/01/20 05:37:03;;;;;;;;;;;-1.20;92.60;;;;;;4782770;30;19932;-78
2022/01/20 05:39:31;;;;;;;;;;;-1.30;92.50;;;;;;4768681;30;19942;-77
2022/01/20 05:41:59;;;;;;;;;;;-1.30;92.40;;;;;;4776430;29;19975;-77
2022/01/20 05:44:50;;;;;;;;;;;-1.40;92.30;;;;;;4841438;29;19932;-77
2022/01/20 05:47:26;;;;;;;;;;;-1.40;92.40;;;;;;4840102;29;19931;-77
2022/01/20 05:50:13;;;;;;;;;;;-1.50;92.40;;;;;;4834756;29;19924;-77
2022/01/20 05:52:42;;;;;;;;;;;-1.60;92.60;;;;;;4825168;29;20369;-77
2022/01/20 05:55:12;;;;;;;;;;;-1.50;92.90;;;;;;4823031;29;19955;-77
2022/01/20 05:57:40;;;;;;;;;;;-1.60;93.20;;;;;;4825776;29;20403;-78
2022/01/20 06:00:11;;;;;;;;;;;-1.50;93.10;;;;;;4828362;29;19935;-76
2022/01/20 06:05:36;;;;;;;;;;;-1.60;93.10;;;;;;4824781;29;19939;-77
2022/01/20 06:08:04;;;;;;;;;;;-1.70;93.10;;;;;;4823258;29;19979;-77
2022/01/20 06:10:32;;;;;;;;;;;-1.70;93.00;;;;;;4807551;29;19999;-77
2022/01/20 06:13:08;;;;;;;;;;;-1.70;93.10;;;;;;4807609;29;19929;-78
2022/01/20 06:15:36;;;;;;;;;;;-1.70;93.00;;;;;;4833235;29;19925;-77
2022/01/20 06:18:04;;;;;;;;;;;-1.80;92.90;;;;;;4840215;29;19925;-77
2022/01/20 06:20:32;;;;;;;;;;;-1.80;92.70;;;;;;4856747;29;19931;-76
2022/01/20 06:23:00;;;;;;;;;;;-1.90;92.80;;;;;;4833332;29;19924;-78
2022/01/20 06:25:31;;;;;;;;;;;-1.90;92.70;;;;;;4808560;29;19925;-77
2022/01/20 06:27:59;;;;;;;;;;;-2.00;92.60;;;;;;4849417;29;20047;-78
2022/01/20 06:30:26;;;;;;;;;;;-2.10;92.60;;;;;;4851034;29;19924;-79
2022/01/20 06:32:54;;;;;;;;;;;-2.10;92.80;;;;;;4846326;29;19931;-78
2022/01/20 06:35:29;;;;;;;;;;;-2.00;93.10;;;;;;4838522;29;19931;-78
2022/01/20 06:37:57;;;;;;;;;;;-2.00;93.20;;;;;;4831352;29;19939;-78
2022/01/20 06:40:25;;;;;;;;;;;-1.90;93.00;;;;;;4831928;29;19924;-78
2022/01/20 06:42:53;;;;;;;;;;;-2.00;92.90;;;;;;4839511;29;20296;-78
2022/01/20 06:45:22;;;;;;;;;;;-2.00;92.70;;;;;;4854017;29;19924;-78
2022/01/20 06:47:56;;;;;;;;;;;-2.10;92.60;;;;;;4823189;29;19932;-78
2022/01/20 06:50:24;;;;;;;;;;;-2.10;92.60;;;;;;4822575;29;19932;-77
2022/01/20 06:52:54;;;;;;;;;;;-2.20;92.40;;;;;;4826196;29;19931;-79
2022/01/20 06:55:22;;;;;;;;;;;-2.30;92.40;;;;;;4849313;29;19947;-78
2022/01/20 06:57:50;;;;;;;;;;;-2.20;92.70;;;;;;4828694;29;19931;-78
2022/01/20 07:00:20;;;;;;;;;;;-2.20;93.00;;;;;;4853025;29;19931;-78
2022/01/20 07:02:51;;;;;;;;;;;-2.20;92.90;;;;;;4854176;29;19928;-77
2022/01/20 07:05:19;;;;;;;;;;;-2.20;92.90;;;;;;4851847;29;20329;-78
2022/01/20 07:07:47;;;;;;;;;;;-2.30;92.80;;;;;;4852912;29;19924;-78
2022/01/20 07:10:21;;;;;;;;;;;-2.30;92.70;;;;;;4817611;29;19924;-78
2022/01/20 07:12:52;;;;;;;;;;;-2.40;92.60;;;;;;4843402;29;19935;-77
2022/01/20 07:15:20;;;;;;;;;;;-2.40;92.80;;;;;;4835275;29;19942;-78
2022/01/20 07:17:49;;;;;;;;;;;-2.30;93.00;;;;;;4834429;29;19943;-78
2022/01/20 07:20:18;;;;;;;;;;;-2.20;93.40;;;;;;4817469;29;19935;-78
2022/01/20 07:23:02;;;;;;;;;;;-2.10;93.70;;;;;;4805351;29;19934;-78
2022/01/20 07:25:32;;;;;;;;;;;-2.00;93.90;;;;;;4806518;29;19941;-78
2022/01/20 07:28:10;;;;;;;;;;;-2.00;94.00;;;;;;4820328;29;19925;-78
2022/01/20 07:30:39;;;;;;;;;;;-1.80;94.10;;;;;;4798577;29;19932;-78
2022/01/20 07:33:08;;;;;;;;;;;-1.80;94.20;;;;;;4814210;29;19928;-78
2022/01/20 07:35:37;;;;;;;;;;;-1.70;94.30;;;;;;4811043;29;19948;-78
2022/01/20 07:38:04;;;;;;;;;;;-1.60;94.40;;;;;;4812339;29;20309;-78
2022/01/20 07:40:32;;;;;;;;;;;-1.50;94.40;;;;;;4809887;29;19924;-78
2022/01/20 07:43:00;;;;;;;;;;;-1.40;94.40;;;;;;4798424;29;19924;-79
2022/01/20 07:45:34;;;;;;;;;;;-1.30;94.40;;;;;;4813994;29;19944;-78
2022/01/20 07:48:25;;;;;;;;;;;-1.30;94.30;;;;;;4816242;29;19932;-78
2022/01/20 07:51:01;;;;;;;;;;;-1.20;94.20;;;;;;4802204;29;19925;-78
2022/01/20 07:53:34;;;;;;;;;;;-1.30;94.00;;;;;;4789213;29;19993;-78
2022/01/20 07:56:02;;;;;;;;;;;-1.30;93.90;;;;;;4806891;29;19925;-78
2022/01/20 07:58:29;;;;;;;;;;;-1.40;93.70;;;;;;4795738;29;19925;-79
2022/01/20 08:00:57;;;;;;;;;;;-1.40;93.70;;;;;;4792145;29;19925;-78
2022/01/20 08:03:27;;;;;;;;;;;-1.40;93.60;;;;;;4802884;29;19931;-78
2022/01/20 08:06:04;;;;;;;;;;;-1.50;93.60;;;;;;4814695;29;19941;-78
2022/01/20 08:08:35;;;;;;;;;;;-1.50;93.60;;;;;;4804120;29;19932;-78
2022/01/20 08:11:23;;;;;;;;;;;-1.60;93.40;;;;;;4800012;29;19925;-79
2022/01/20 08:13:57;;;;;;;;;;;-1.60;93.30;;;;;;4804569;29;20378;-79
2022/01/20 08:16:25;;;;;;;;;;;-1.70;93.40;;;;;;4818225;29;19925;-79
2022/01/20 08:18:53;;;;;;;;;;;-1.70;93.40;;;;;;4805445;29;19947;-79
2022/01/20 08:21:21;;;;;;;;;;;-1.70;93.40;;;;;;4806479;29;19924;-78
2022/01/20 08:23:51;;;;;;;;;;;-1.80;93.40;;;;;;4821783;29;19925;-78
2022/01/20 08:26:18;;;;;;;;;;;-1.80;93.30;;;;;;4822002;29;20381;-79
2022/01/20 08:28:46;;;;;;;;;;;-1.80;93.30;;;;;;4821887;29;20309;-78
2022/01/20 08:31:14;;;;;;;;;;;-1.90;93.20;;;;;;4823124;29;20385;-79
2022/01/20 08:33:41;;;;;;;;;;;-1.90;93.20;;;;;;4820594;29;19924;-79
2022/01/20 08:36:15;;;;;;;;;;;-1.90;93.40;;;;;;4800097;29;19929;-79
2022/01/20 08:38:47;;;;;;;;;;;-1.90;93.50;;;;;;4810001;29;19924;-79
2022/01/20 08:41:15;;;;;;;;;;;-1.80;93.70;;;;;;4811712;29;19932;-79
2022/01/20 08:43:42;;;;;;;;;;;-1.80;93.80;;;;;;4813146;29;19925;-79
2022/01/20 08:46:16;;;;;;;;;;;-1.80;93.80;;;;;;4826854;29;19925;-79
2022/01/20 08:48:44;;;;;;;;;;;-1.70;93.80;;;;;;4811177;29;19925;-78
2022/01/20 08:51:19;;;;;;;;;;;-1.70;93.80;;;;;;4813369;29;19929;-80
2022/01/20 08:54:07;;;;;;;;;;;-1.70;93.80;;;;;;4803671;29;20342;-77
2022/01/20 08:56:35;;;;;;;;;;;-1.70;93.80;;;;;;4807209;29;20366;-77
2022/01/20 08:59:05;;;;;;;;;;;-1.70;93.70;;;;;;4807582;29;19925;-78
2022/01/20 09:01:36;;;;;;;;;;;-1.70;93.60;;;;;;4792016;29;20310;-77
2022/01/20 09:04:04;;;;;;;;;;;-1.70;93.70;;;;;;4791438;29;19926;-77
2022/01/20 09:06:33;;;;;;;;;;;-1.70;93.80;;;;;;4776600;29;20401;-77
2022/01/20 09:09:14;;;;;;;;;;;-1.60;93.90;;;;;;4811005;29;19932;-77
2022/01/20 09:11:51;;;;;;;;;;;-1.60;93.90;;;;;;4809409;29;20001;-77
2022/01/20 09:17:05;;;;;;;;;;;-1.40;94.00;;;;;;4823598;29;20289;-77
2022/01/20 09:19:33;;;;;;;;;;;-1.40;94.10;;;;;;4808660;29;19924;-77
2022/01/20 09:22:05;;;;;;;;;;;-1.30;94.20;;;;;;4823847;29;20404;-77
2022/01/20 09:24:32;;;;;;;;;;;-1.20;94.40;;;;;;4782346;29;19925;-77
2022/01/20 09:27:02;;;;;;;;;;;-1.00;94.60;;;;;;4807245;29;19925;-77
2022/01/20 09:29:29;;;;;;;;;;;-0.90;94.70;;;;;;4806050;29;20324;-77
2022/01/20 09:31:59;;;;;;;;;;;-0.70;94.80;;;;;;4790599;29;20373;-77
2022/01/20 09:34:30;;;;;;;;;;;-0.60;94.90;;;;;;4802776;29;19940;-78
2022/01/20 09:36:58;;;;;;;;;;;-0.40;94.90;;;;;;4809109;29;19931;-77
2022/01/20 09:39:26;;;;;;;;;;;-0.30;94.90;;;;;;4824214;29;19931;-77
2022/01/20 09:42:02;;;;;;;;;;;-0.20;94.90;;;;;;4808851;29;19933;-77
2022/01/20 09:44:32;;;;;;;;;;;-0.10;94.90;;;;;;4823954;29;20304;-78
2022/01/20 09:47:02;;;;;;;;;;;0.00;94.90;;;;;;4823603;29;19932;-78
2022/01/20 09:49:53;;;;;;;;;;;0.00;94.80;;;;;;4789303;29;19936;-77
2022/01/20 09:52:26;;;;;;;;;;;0.10;94.70;;;;;;4823794;29;19932;-76
2022/01/20 09:55:08;;;;;;;;;;;0.20;94.60;;;;;;4793552;29;20004;-78
2022/01/20 09:57:36;;;;;;;;;;;0.20;94.50;;;;;;4808747;29;19928;-77
2022/01/20 10:00:08;;;;;;;;;;;0.20;94.40;;;;;;4818298;29;19956;-77
2022/01/20 10:02:50;;;;;;;;;;;0.30;94.30;;;;;;4798956;29;19925;-76
2022/01/20 10:05:24;;;;;;;;;;;0.30;94.30;;;;;;4813764;29;20382;-77
2022/01/20 10:07:52;;;;;;;;;;;0.30;94.20;;;;;;4796914;29;20305;-78
2022/01/20 10:10:36;;;;;;;;;;;0.40;94.10;;;;;;4799684;29;20305;-77
2022/01/20 10:13:30;;;;;;;;;;;0.40;94.10;;;;;;4804106;29;20365;-78
2022/01/20 10:16:18;;;;;;;;;;;0.40;94.00;;;;;;4799080;29;19929;-77
2022/01/20 10:18:48;;;;;;;;;;;0.50;94.00;;;;;;4796323;29;20377;-77
2022/01/20 10:21:17;;;;;;;;;;;0.50;94.00;;;;;;4806490;29;19932;-77
2022/01/20 10:24:05;;;;;;;;;;;0.50;93.90;;;;;;4782057;29;19929;-77
2022/01/20 10:26:58;;;;;;;;;;;0.60;93.90;;;;;;4796165;29;19932;-78
2022/01/20 10:29:26;;;;;;;;;;;0.70;93.90;;;;;;4812966;29;19925;-78
2022/01/20 10:32:14;;;;;;;;;;;0.80;93.80;;;;;;4818918;29;19925;-78
2022/01/20 10:34:42;;;;;;;;;;;0.80;93.80;;;;;;4813103;29;20038;-78
2022/01/20 10:37:17;;;;;;;;;;;0.80;93.80;;;;;;4814023;29;19929;-78
2022/01/20 10:40:12;;;;;;;;;;;0.90;93.80;;;;;;4813180;29;19929;-78
2022/01/20 10:42:46;;;;;;;;;;;1.00;93.80;;;;;;4811649;29;19936;-78
2022/01/20 10:45:21;;;;;;;;;;;1.10;93.80;;;;;;4796190;29;19936;-77
2022/01/20 10:47:50;;;;;;;;;;;1.20;93.80;;;;;;4788562;29;19948;-78
2022/01/20 10:50:28;;;;;;;;;;;1.30;93.70;;;;;;4810701;29;19936;-79
2022/01/20 10:52:59;;;;;;;;;;;1.30;93.70;;;;;;4811232;29;19939;-78
2022/01/20 10:55:28;;;;;;;;;;;1.40;93.60;;;;;;4819559;29;20392;-78
2022/01/20 10:58:17;;;;;;;;;;;1.50;93.40;;;;;;4818684;29;19936;-78
2022/01/20 11:00:46;;;;;;;;;;;1.60;93.30;;;;;;4781468;29;19925;-79
2022/01/20 11:03:14;;;;;;;;;;;1.70;93.10;;;;;;4819815;29;19924;-79
2022/01/20 11:05:50;;;;;;;;;;;1.80;92.90;;;;;;4804591;29;19932;-79
2022/01/20 11:08:39;;;;;;;;;;;1.90;92.70;;;;;;4814691;29;19932;-80
2022/01/20 11:11:08;;;;;;;;;;;2.00;92.40;;;;;;4813027;29;19929;-80
2022/01/20 11:13:48;;;;;;;;;;;2.20;92.20;;;;;;4799825;29;19925;-79
2022/01/20 11:16:17;;;;;;;;;;;2.30;91.80;;;;;;4812204;29;19939;-79
2022/01/20 11:18:46;;;;;;;;;;;2.40;91.30;;;;;;4810990;29;19925;-78
2022/01/20 11:21:24;;;;;;;;;;;2.50;91.00;;;;;;4818138;29;19929;-79
2022/01/20 11:23:53;;;;;;;;;;;2.60;90.40;;;;;;4812393;29;19932;-78
2022/01/20 11:26:48;;;;;;;;;;;2.70;89.30;;;;;;4766014;30;19933;-79
2022/01/20 11:29:36;;;;;;;;;;;2.80;89.20;;;;;;4766254;30;19926;-78
2022/01/20 11:32:23;;;;;;;;;;;2.80;89.00;;;;;;4766652;30;19926;-78
2022/01/20 11:35:01;;;;;;;;;;;2.90;88.40;;;;;;4766012;30;19929;-77
2022/01/20 11:37:34;;;;;;;;;;;3.00;87.90;;;;;;4766018;30;19959;-77
2022/01/20 11:40:07;;;;;;;;;;;3.10;87.40;;;;;;4765828;30;20066;-78
2022/01/20 11:42:34;;;;;;;;;;;3.30;87.20;;;;;;4766390;30;19925;-77
2022/01/20 11:45:22;;;;;;;;;;;3.30;86.30;;;;;;4765208;30;19933;-77
2022/01/20 11:47:50;;;;;;;;;;;3.40;85.00;;;;;;4761053;30;20306;-78
2022/01/20 11:50:17;;;;;;;;;;;3.50;84.80;;;;;;4766671;30;20361;-82
2022/01/20 11:52:45;;;;;;;;;;;3.80;84.40;;;;;;4763508;30;19926;-79
2022/01/20 11:55:28;;;;;;;;;;;3.90;81.80;;;;;;4764386;30;20405;-79
2022/01/20 11:57:55;;;;;;;;;;;4.20;82.50;;;;;;4766023;30;19933;-78
2022/01/20 12:00:24;;;;;;;;;;;4.60;82.20;;;;;;4765685;30;19960;-79
2022/01/20 12:02:52;;;;;;;;;;;4.90;82.30;;;;;;4768418;29;19929;-78
2022/01/20 12:05:33;;;;;;;;;;;5.30;81.60;;;;;;4814733;29;19944;-79
2022/01/20 12:08:20;;;;;;;;;;;5.70;80.70;;;;;;4812264;29;19924;-79
2022/01/20 12:11:07;;;;;;;;;;;6.10;78.50;;;;;;4810759;29;19925;-79
2022/01/20 12:13:48;;;;;;;;;;;6.40;78.30;;;;;;4816956;29;19933;-79
2022/01/20 12:16:19;;;;;;;;;;;6.80;78.40;;;;;;4820759;29;19995;-78
2022/01/20 12:18:51;;;;;;;;;;;7.20;78.40;;;;;;4811174;29;19925;-79
2022/01/20 12:21:19;;;;;;;;;;;7.50;76.30;;;;;;4826241;29;19932;-77
2022/01/20 12:23:47;;;;;;;;;;;7.60;72.60;;;;;;4826717;29;19924;-79
2022/01/20 12:26:15;;;;;;;;;;;7.70;72.10;;;;;;4825692;29;20301;-85
2022/01/20 12:28:43;;;;;;;;;;;7.80;69.90;;;;;;4810426;29;19947;-78
2022/01/20 12:31:12;;;;;;;;;;;7.80;69.80;;;;;;4825618;29;19932;-77
2022/01/20 12:33:44;;;;;;;;;;;7.90;69.70;;;;;;4827289;29;19944;-80
2022/01/20 12:36:13;;;;;;;;;;;8.00;68.10;;;;;;4827613;29;19928;-79
2022/01/20 12:38:41;;;;;;;;;;;8.00;67.90;;;;;;4825463;29;19924;-80
2022/01/20 12:41:08;;;;;;;;;;;7.90;64.00;;;;;;4826078;29;19934;-80
2022/01/20 12:43:40;;;;;;;;;;;7.70;65.30;;;;;;4825758;29;19936;-79
2022/01/20 12:46:09;;;;;;;;;;;7.70;66.20;;;;;;4810903;29;20385;-79
2022/01/20 12:48:39;;;;;;;;;;;8.00;67.30;;;;;;4807925;29;19925;-79
2022/01/20 12:51:07;;;;;;;;;;;8.30;65.60;;;;;;4806765;29;19924;-78
2022/01/20 12:53:39;;;;;;;;;;;8.60;65.10;;;;;;4810516;29;19931;-78
2022/01/20 12:56:08;;;;;;;;;;;8.90;65.10;;;;;;4809583;29;20305;-79
2022/01/20 12:58:46;;;;;;;;;;;9.20;64.20;;;;;;4809228;29;20002;-79
2022/01/20 13:01:13;;;;;;;;;;;9.30;63.70;;;;;;4814188;29;20431;-79
2022/01/20 13:03:42;;;;;;;;;;;9.30;61.90;;;;;;4807705;29;20297;-80
2022/01/20 13:06:19;;;;;;;;;;;9.30;60.30;;;;;;4791274;29;20403;-80
2022/01/20 13:09:01;;;;;;;;;;;9.60;60.20;;;;;;4807705;29;19925;-79
2022/01/20 13:11:30;;;;;;;;;;;9.80;59.20;;;;;;4808101;29;19942;-79
2022/01/20 13:13:58;;;;;;;;;;;9.90;56.20;;;;;;4807399;29;19925;-79
2022/01/20 13:16:26;;;;;;;;;;;10.00;56.10;;;;;;4807609;29;19932;-80
2022/01/20 13:18:57;;;;;;;;;;;10.10;53.20;;;;;;4823797;29;19924;-79
2022/01/20 13:21:33;;;;;;;;;;;10.10;53.70;;;;;;4825309;29;19931;-79
2022/01/20 13:24:03;;;;;;;;;;;10.30;53.70;;;;;;4825537;29;19928;-78
2022/01/20 13:26:30;;;;;;;;;;;10.40;52.30;;;;;;4824571;29;19925;-79
2022/01/20 13:28:59;;;;;;;;;;;10.30;50.10;;;;;;4825472;29;19924;-79
2022/01/20 13:31:36;;;;;;;;;;;10.20;48.60;;;;;;4825489;29;19924;-78
2022/01/20 13:34:08;;;;;;;;;;;10.00;49.70;;;;;;4811963;29;19924;-79
2022/01/20 13:36:39;;;;;;;;;;;9.90;48.40;;;;;;4810732;29;19925;-78
2022/01/20 13:39:07;;;;;;;;;;;9.80;47.70;;;;;;4808516;29;19947;-78
2022/01/20 13:41:35;;;;;;;;;;;9.70;47.90;;;;;;4824956;29;19925;-78
2022/01/20 13:47:06;;;;;;;;;;;9.50;47.60;;;;;;4835658;29;19925;-79
2022/01/20 13:49:34;;;;;;;;;;;9.50;48.90;;;;;;4824636;29;19925;-78
2022/01/20 13:52:06;;;;;;;;;;;9.70;49.20;;;;;;4825209;29;19925;-78
2022/01/20 13:54:36;;;;;;;;;;;9.90;49.20;;;;;;4824860;29;19935;-79
2022/01/20 13:57:17;;;;;;;;;;;10.10;49.20;;;;;;4826109;29;19925;-78
2022/01/20 13:59:53;;;;;;;;;;;10.30;47.40;;;;;;4810293;29;19935;-79
2022/01/20 14:02:22;;;;;;;;;;;10.30;47.60;;;;;;4828637;29;19996;-78
2022/01/20 14:04:50;;;;;;;;;;;10.30;47.30;;;;;;4813412;29;19924;-79
2022/01/20 14:07:20;;;;;;;;;;;10.20;46.70;;;;;;4826676;29;20007;-79
2022/01/20 14:09:48;;;;;;;;;;;10.10;47.60;;;;;;4825304;29;19931;-79
2022/01/20 14:12:15;;;;;;;;;;;9.80;48.20;;;;;;4827689;29;19924;-79
2022/01/20 14:14:43;;;;;;;;;;;9.10;49.60;;;;;;4833437;29;19924;-78
2022/01/20 14:17:15;;;;;;;;;;;8.40;50.10;;;;;;4828416;29;19924;-77
2022/01/20 14:19:45;;;;;;;;;;;7.60;49.80;;;;;;4856248;29;19924;-76
2022/01/20 14:22:13;;;;;;;;;;;7.00;50.80;;;;;;4856220;29;19924;-77
2022/01/20 14:24:40;;;;;;;;;;;6.80;51.60;;;;;;4842488;29;19928;-77
2022/01/20 14:27:11;;;;;;;;;;;6.80;52.10;;;;;;4837695;29;19928;-77
2022/01/20 14:29:38;;;;;;;;;;;6.70;52.50;;;;;;4824731;29;19932;-78
2022/01/20 14:32:06;;;;;;;;;;;6.30;53.00;;;;;;4838221;29;20301;-78
2022/01/20 14:34:34;;;;;;;;;;;6.00;53.50;;;;;;4823555;29;19928;-78
2022/01/20 14:37:01;;;;;;;;;;;5.70;54.00;;;;;;4826692;29;19948;-77
2022/01/20 14:39:29;;;;;;;;;;;5.40;54.60;;;;;;4856194;29;19924;-78
2022/01/20 14:41:56;;;;;;;;;;;5.30;55.20;;;;;;4840741;29;19931;-77
2022/01/20 14:44:24;;;;;;;;;;;5.10;55.90;;;;;;4842123;29;20257;-77
2022/01/20 14:46:51;;;;;;;;;;;4.90;56.50;;;;;;4856233;29;19947;-78
2022/01/20 14:49:19;;;;;;;;;;;4.80;56.80;;;;;;4856084;29;19924;-78
2022/01/20 14:51:48;;;;;;;;;;;4.60;57.20;;;;;;4841832;29;19924;-77
2022/01/20 14:54:15;;;;;;;;;;;4.50;57.70;;;;;;4841866;29;20425;-77
2022/01/20 14:56:43;;;;;;;;;;;4.40;58.00;;;;;;4840659;29;19931;-79
2022/01/20 14:59:15;;;;;;;;;;;4.30;58.30;;;;;;4842202;29;19924;-77
2022/01/20 15:01:42;;;;;;;;;;;4.30;58.60;;;;;;4838699;29;20297;-78
2022/01/20 15:04:10;;;;;;;;;;;4.30;58.80;;;;;;4841394;29;19932;-77
2022/01/20 15:06:38;;;;;;;;;;;4.30;59.20;;;;;;4841823;29;19955;-79
2022/01/20 15:09:05;;;;;;;;;;;4.20;59.40;;;;;;4840833;29;19931;-78
2022/01/20 15:11:38;;;;;;;;;;;4.20;59.60;;;;;;4838944;29;19924;-77
2022/01/20 15:14:06;;;;;;;;;;;4.20;59.40;;;;;;4823836;29;19947;-81
2022/01/20 15:16:34;;;;;;;;;;;4.10;59.50;;;;;;4823528;29;19955;-76
2022/01/20 15:19:05;;;;;;;;;;;4.10;59.70;;;;;;4825150;29;19924;-81
2022/01/20 15:21:33;;;;;;;;;;;4.00;59.80;;;;;;4849176;29;19924;-81
2022/01/20 15:24:06;;;;;;;;;;;4.00;60.10;;;;;;4825867;29;19952;-80
2022/01/20 15:26:33;;;;;;;;;;;4.00;60.80;;;;;;4839522;29;19925;-78
2022/01/20 15:29:01;;;;;;;;;;;3.90;61.10;;;;;;4829644;29;19931;-81
2022/01/20 15:31:30;;;;;;;;;;;3.90;61.50;;;;;;4832051;29;19924;-82
2022/01/20 15:33:58;;;;;;;;;;;3.80;61.70;;;;;;4832486;29;19924;-81
2022/01/20 15:36:25;;;;;;;;;;;3.90;61.70;;;;;;4834545;29;19925;-82
2022/01/20 15:38:53;;;;;;;;;;;3.80;61.80;;;;;;4841776;29;20300;-81
2022/01/20 15:41:20;;;;;;;;;;;3.80;62.00;;;;;;4837873;29;19932;-82
2022/01/20 15:43:48;;;;;;;;;;;3.80;62.20;;;;;;4818207;29;19943;-81
2022/01/20 15:46:16;;;;;;;;;;;3.80;62.30;;;;;;4851758;29;20337;-80
2022/01/20 15:48:43;;;;;;;;;;;3.80;62.50;;;;;;4843021;29;19931;-81
2022/01/20 15:51:10;;;;;;;;;;;3.70;62.70;;;;;;4835851;29;19929;-81
2022/01/20 15:53:38;;;;;;;;;;;3.70;62.70;;;;;;4826050;29;20300;-81
2022/01/20 15:56:07;;;;;;;;;;;3.60;62.70;;;;;;4850176;29;20381;-81
2022/01/20 15:58:35;;;;;;;;;;;3.60;62.90;;;;;;4838444;29;20304;-79
2022/01/20 16:01:05;;;;;;;;;;;3.50;63.10;;;;;;4832614;29;19925;-81